createdAt,value
2023-02-15T00:01:46.344Z,6.90
2023-02-15T00:11:47.087Z,6.70
2023-02-15T00:21:46.326Z,6.70
2023-02-15T00:31:45.238Z,6.50
2023-02-15T00:41:44.295Z,6.40
2023-02-15T00:51:43.292Z,6.10
2023-02-15T01:01:42.312Z,6.00
2023-02-15T01:11:41.367Z,5.90
2023-02-15T01:21:41.323Z,5.90
2023-02-15T01:31:41.309Z,5.90
2023-02-15T01:41:40.358Z,5.90
2023-02-15T01:51:39.242Z,5.80
2023-02-15T02:01:38.364Z,5.70
2023-02-15T02:11:38.070Z,5.70
2023-02-15T02:21:37.439Z,5.60
2023-02-15T02:31:36.329Z,5.50
2023-02-15T02:41:35.858Z,5.40
2023-02-15T02:51:35.236Z,5.30
2023-02-15T03:01:35.199Z,5.10
2023-02-15T03:11:34.842Z,5.00
2023-02-15T03:21:34.270Z,5.00
2023-02-15T03:31:33.470Z,5.00
2023-02-15T03:41:32.263Z,4.90
2023-02-15T03:51:38.478Z,4.80
2023-02-15T04:01:56.946Z,4.80
2023-02-15T04:11:56.388Z,4.70
2023-02-15T04:22:13.364Z,4.70
2023-02-15T04:32:12.374Z,4.60
2023-02-15T04:42:11.309Z,4.60
2023-02-15T04:52:10.343Z,4.40
2023-02-15T05:02:09.863Z,4.40
2023-02-15T05:12:09.433Z,4.40
2023-02-15T05:22:08.522Z,4.30
2023-02-15T05:32:07.461Z,4.20
2023-02-15T05:42:06.428Z,4.30
2023-02-15T05:52:05.454Z,4.30
2023-02-15T06:02:04.528Z,4.40
2023-02-15T06:12:03.340Z,4.50
2023-02-15T06:22:02.506Z,4.60
2023-02-15T06:32:01.570Z,4.70
2023-02-15T06:42:00.386Z,4.60
2023-02-15T06:51:59.427Z,4.50
2023-02-15T07:01:59.404Z,4.40
2023-02-15T07:12:16.784Z,4.40
2023-02-15T07:22:15.512Z,4.40
2023-02-15T07:32:14.566Z,4.50
2023-02-15T07:42:13.429Z,4.50
2023-02-15T07:52:12.465Z,4.80
2023-02-15T08:02:11.521Z,5.00
2023-02-15T08:12:10.548Z,5.30
2023-02-15T08:22:10.786Z,5.60
2023-02-15T08:32:09.766Z,6.00
2023-02-15T08:42:08.527Z,6.30
2023-02-15T08:52:07.552Z,6.60
2023-02-15T09:02:06.477Z,6.80
2023-02-15T09:12:05.438Z,7.10
2023-02-15T09:22:04.483Z,7.20
2023-02-15T09:32:03.983Z,7.50
2023-02-15T09:42:02.704Z,7.80
2023-02-15T09:52:01.645Z,8.00
2023-02-15T10:02:00.576Z,8.30
2023-02-15T10:11:59.625Z,8.60
2023-02-15T10:21:58.566Z,8.70
2023-02-15T10:31:57.694Z,9.00
2023-02-15T10:41:56.700Z,9.30
2023-02-15T10:51:55.462Z,9.60
2023-02-15T11:01:54.658Z,10.00
2023-02-15T11:11:53.899Z,10.20
2023-02-15T11:21:53.137Z,10.40
2023-02-15T11:31:52.771Z,10.60
2023-02-15T11:41:52.629Z,10.80
2023-02-15T11:51:51.639Z,11.10
2023-02-15T12:01:51.946Z,11.40
2023-02-15T12:11:50.486Z,11.70
2023-02-15T12:21:49.518Z,11.90
2023-02-15T12:31:48.571Z,12.20
2023-02-15T12:41:47.518Z,12.40
2023-02-15T12:51:46.539Z,12.50
2023-02-15T13:01:46.563Z,12.70
2023-02-15T13:11:45.452Z,12.90
2023-02-15T13:21:44.537Z,13.20
2023-02-15T13:31:43.953Z,13.50
2023-02-15T13:41:42.548Z,13.70
2023-02-15T13:51:41.606Z,13.90
2023-02-15T14:01:40.672Z,14.20
2023-02-15T14:11:39.573Z,14.50
2023-02-15T14:21:38.533Z,15.00
2023-02-15T14:31:37.870Z,15.40
2023-02-15T14:41:36.623Z,15.40
2023-02-15T14:51:35.592Z,15.30
2023-02-15T15:01:34.647Z,15.20
2023-02-15T15:11:42.990Z,15.00
2023-02-15T15:21:34.594Z,15.00
2023-02-15T15:31:33.739Z,14.80
2023-02-15T15:41:32.655Z,14.70
2023-02-15T15:51:31.951Z,14.40
2023-02-15T16:01:30.692Z,14.00
2023-02-15T16:11:29.649Z,13.80
2023-02-15T16:21:28.633Z,13.60
2023-02-15T16:31:27.754Z,13.20
2023-02-15T16:41:27.679Z,12.90
2023-02-15T16:51:28.557Z,12.40
2023-02-15T17:01:27.761Z,12.10
2023-02-15T17:11:26.659Z,11.70
2023-02-15T17:21:25.589Z,11.40
2023-02-15T17:31:24.769Z,11.10
2023-02-15T17:41:23.766Z,11.00
2023-02-15T17:51:22.826Z,10.80
2023-02-15T18:01:39.935Z,10.70
2023-02-15T18:11:38.828Z,10.50
2023-02-15T18:21:37.685Z,10.40
2023-02-15T18:31:37.052Z,10.30
2023-02-15T18:41:35.606Z,10.10
2023-02-15T18:51:37.067Z,10.00
2023-02-15T19:01:35.871Z,9.80
2023-02-15T19:11:34.758Z,9.60
2023-02-15T19:21:33.894Z,9.40
2023-02-15T19:31:35.112Z,9.30
2023-02-15T19:41:34.194Z,9.20
2023-02-15T19:51:33.671Z,9.20
2023-02-15T20:01:32.967Z,9.10
2023-02-15T20:11:31.909Z,9.10
2023-02-15T20:21:30.758Z,9.10
2023-02-15T20:31:29.989Z,9.10
2023-02-15T20:41:39.467Z,9.10
2023-02-15T20:51:40.314Z,9.10
2023-02-15T21:01:39.990Z,9.00
2023-02-15T21:11:40.267Z,8.90
2023-02-15T21:21:38.849Z,8.80
2023-02-15T21:31:41.064Z,8.70
2023-02-15T21:41:58.115Z,8.60
2023-02-15T21:52:11.810Z,8.60
2023-02-15T22:02:10.811Z,8.50
2023-02-15T22:12:09.789Z,8.40
2023-02-15T22:22:09.765Z,8.30
2023-02-15T22:32:09.054Z,8.20
2023-02-15T22:42:07.877Z,8.10
2023-02-15T22:52:06.983Z,8.10
2023-02-15T23:02:07.157Z,8.00
2023-02-15T23:12:06.108Z,8.00
2023-02-15T23:22:04.883Z,8.00
2023-02-15T23:32:04.021Z,7.90
2023-02-15T23:42:02.893Z,7.90
2023-02-15T23:52:01.843Z,7.80
